Terminal Aerodrome Forecast
Issued by NWS

Home | Current Version | Previous Version | Text Only | Print | Product List | Glossary On
Versions: 1 2 3 4 5 6 7 8 9 10 11 12 13 14 15 16 17
634
FTUS42 TJSJ 251720
TAFNCM
TAF
TNCM 251720Z 2518/2618 09012KT P6SM VCSH SCT018 SCT040
     FM252300 07008KT P6SM -SHRA SCT018 BKN060
      TEMPO 2606/2610 VRB12KT 5SM SHRA BKN018
     FM261400 09014KT P6SM SCT022 SCT050=

USA.gov is the U.S. government's official web portal to all federal, state and local government web resources and services.